createdAt,value
2023-05-06T00:01:06.935Z,49.30
2023-05-06T00:03:34.716Z,49.32
2023-05-06T00:06:05.482Z,49.49
2023-05-06T00:08:32.402Z,49.57
2023-05-06T00:10:59.221Z,49.72
2023-05-06T00:13:26.060Z,49.82
2023-05-06T00:15:52.902Z,49.87
2023-05-06T00:18:22.381Z,50.10
2023-05-06T00:20:49.457Z,50.30
2023-05-06T00:23:16.465Z,50.31
2023-05-06T00:25:43.318Z,50.45
2023-05-06T00:28:10.250Z,50.29
2023-05-06T00:30:37.034Z,50.33
2023-05-06T00:33:03.953Z,50.27
2023-05-06T00:35:31.261Z,50.12
2023-05-06T00:42:33.174Z,50.01
2023-05-06T00:45:00.067Z,49.93
2023-05-06T00:47:26.955Z,49.95
2023-05-06T00:49:53.882Z,49.96
2023-05-06T00:52:20.748Z,49.92
2023-05-06T00:54:47.617Z,49.79
2023-05-06T00:57:14.486Z,49.86
2023-05-06T00:59:41.406Z,49.81
2023-05-06T01:02:09.419Z,49.78
2023-05-06T01:04:36.678Z,49.95
2023-05-06T01:07:24.868Z,50.03
2023-05-06T01:09:56.544Z,50.18
2023-05-06T01:12:34.350Z,50.31
2023-05-06T01:15:08.825Z,50.38
2023-05-06T01:17:36.801Z,50.45
2023-05-06T01:20:05.408Z,50.59
2023-05-06T01:22:34.338Z,50.77
2023-05-06T01:25:01.759Z,51.05
2023-05-06T01:27:28.653Z,51.27
2023-05-06T01:29:55.502Z,51.50
2023-05-06T01:32:26.450Z,51.68
2023-05-06T01:35:18.214Z,51.86
2023-05-06T01:38:05.510Z,52.18
2023-05-06T01:40:32.988Z,52.38
2023-05-06T01:43:00.615Z,52.54
2023-05-06T01:45:28.696Z,52.65
2023-05-06T01:47:56.087Z,52.73
2023-05-06T01:50:23.189Z,52.84
2023-05-06T01:53:00.111Z,52.96
2023-05-06T01:55:27.547Z,53.00
2023-05-06T01:57:55.062Z,53.06
2023-05-06T02:00:22.260Z,53.12
2023-05-06T02:02:49.755Z,53.23
2023-05-06T02:05:17.397Z,53.37
2023-05-06T02:07:44.619Z,53.57
2023-05-06T02:10:11.617Z,53.73
2023-05-06T02:12:41.237Z,53.73
2023-05-06T02:15:09.483Z,53.81
2023-05-06T02:17:37.878Z,53.91
2023-05-06T02:20:06.086Z,53.85
2023-05-06T02:22:33.691Z,53.90
2023-05-06T02:25:01.135Z,53.96
2023-05-06T02:27:28.026Z,53.93
2023-05-06T02:29:55.543Z,53.94
2023-05-06T02:32:22.582Z,54.04
2023-05-06T02:34:49.574Z,54.07
2023-05-06T02:37:19.668Z,54.07
2023-05-06T02:39:49.665Z,54.09
2023-05-06T02:42:21.651Z,54.20
2023-05-06T02:44:51.681Z,54.29
2023-05-06T02:47:21.756Z,54.25
2023-05-06T02:49:51.037Z,54.31
2023-05-06T02:52:20.700Z,54.36
2023-05-06T02:54:51.660Z,54.37
2023-05-06T02:57:21.689Z,54.37
2023-05-06T02:59:52.670Z,54.35
2023-05-06T03:02:21.980Z,54.42
2023-05-06T03:04:51.677Z,54.40
2023-05-06T03:07:22.100Z,54.33
2023-05-06T03:09:51.753Z,54.28
2023-05-06T03:12:22.095Z,54.21
2023-05-06T03:14:52.709Z,54.24
2023-05-06T03:17:23.701Z,54.15
2023-05-06T03:19:53.507Z,54.09
2023-05-06T03:22:23.705Z,54.01
2023-05-06T03:24:53.739Z,53.82
2023-05-06T03:27:24.731Z,53.61
2023-05-06T03:29:55.960Z,53.64
2023-05-06T03:32:25.928Z,53.60
2023-05-06T03:34:56.741Z,53.51
2023-05-06T03:45:16.686Z,53.47
2023-05-06T03:47:44.325Z,53.50
2023-05-06T03:50:12.416Z,53.42
2023-05-06T03:52:41.600Z,53.39
2023-05-06T03:55:09.520Z,53.38
2023-05-06T03:57:38.357Z,53.26
2023-05-06T04:00:07.198Z,53.23
2023-05-06T04:02:43.078Z,53.19
2023-05-06T04:05:12.186Z,53.15
2023-05-06T04:07:39.244Z,53.23
2023-05-06T04:10:07.481Z,53.07
2023-05-06T04:12:34.650Z,52.91
2023-05-06T04:15:01.931Z,52.99
2023-05-06T04:17:29.353Z,53.11
2023-05-06T04:19:56.930Z,52.90
2023-05-06T04:22:24.054Z,52.93
2023-05-06T04:24:52.183Z,52.86
2023-05-06T04:27:19.441Z,52.77
2023-05-06T04:29:46.465Z,52.81
2023-05-06T04:32:17.483Z,52.96
2023-05-06T04:34:46.778Z,52.81
2023-05-06T04:37:15.833Z,52.70
2023-05-06T04:39:48.211Z,52.82
2023-05-06T04:42:15.851Z,52.75
2023-05-06T04:44:51.590Z,52.81
2023-05-06T04:55:00.130Z,52.37
2023-05-06T04:57:27.376Z,52.45
2023-05-06T04:59:54.780Z,52.32
2023-05-06T05:02:22.109Z,52.35
2023-05-06T05:04:49.531Z,52.31
2023-05-06T05:07:16.556Z,52.24
2023-05-06T05:09:43.500Z,52.30
2023-05-06T05:12:10.775Z,52.24
2023-05-06T05:14:40.871Z,52.13
2023-05-06T05:17:08.007Z,52.20
2023-05-06T05:19:35.168Z,52.16
2023-05-06T05:22:02.705Z,51.93
2023-05-06T05:24:30.880Z,51.91
2023-05-06T05:26:57.923Z,51.46
2023-05-06T05:29:25.480Z,51.38
2023-05-06T05:31:53.167Z,51.28
2023-05-06T05:34:20.708Z,51.24
2023-05-06T05:36:47.981Z,51.18
2023-05-06T05:39:15.074Z,51.24
2023-05-06T05:41:44.772Z,51.32
2023-05-06T05:44:12.136Z,51.30
2023-05-06T05:46:39.576Z,51.30
2023-05-06T05:49:07.026Z,51.21
2023-05-06T05:51:34.011Z,51.07
2023-05-06T05:54:02.652Z,50.41
2023-05-06T05:56:29.729Z,50.14
2023-05-06T05:58:56.829Z,50.21
2023-05-06T06:01:24.446Z,50.16
2023-05-06T06:03:52.024Z,50.20
2023-05-06T06:06:19.373Z,49.92
2023-05-06T06:08:46.534Z,49.70
2023-05-06T06:11:14.214Z,49.58
2023-05-06T06:13:41.339Z,49.36
2023-05-06T06:16:08.269Z,49.14
2023-05-06T06:18:35.731Z,49.33
2023-05-06T06:21:03.010Z,49.23
2023-05-06T06:23:29.894Z,49.36
2023-05-06T06:25:56.743Z,49.51
2023-05-06T06:28:23.932Z,49.50
2023-05-06T06:30:51.009Z,49.42
2023-05-06T06:33:17.892Z,49.18
2023-05-06T06:35:45.158Z,49.03
2023-05-06T06:38:12.028Z,48.87
2023-05-06T06:40:38.885Z,48.79
2023-05-06T06:43:05.789Z,48.71
2023-05-06T06:45:51.489Z,48.90
2023-05-06T06:48:18.882Z,48.90
2023-05-06T06:50:45.852Z,48.81
2023-05-06T06:53:12.717Z,48.31
2023-05-06T06:55:42.476Z,47.85
2023-05-06T06:58:09.299Z,47.42
2023-05-06T07:00:36.291Z,47.51
2023-05-06T07:03:03.289Z,47.43
2023-05-06T07:05:30.240Z,47.57
2023-05-06T07:07:57.068Z,47.70
2023-05-06T07:10:24.029Z,47.42
2023-05-06T07:12:51.102Z,46.86
2023-05-06T07:15:18.018Z,46.81
2023-05-06T07:17:44.902Z,46.17
2023-05-06T07:20:12.719Z,46.07
2023-05-06T07:22:47.264Z,46.01
2023-05-06T07:25:14.817Z,45.81
2023-05-06T07:27:41.634Z,45.76
2023-05-06T07:30:09.224Z,45.49
2023-05-06T07:32:36.426Z,45.20
2023-05-06T07:35:03.640Z,45.35
2023-05-06T07:37:30.546Z,45.48
2023-05-06T07:39:58.290Z,45.28
2023-05-06T07:42:25.278Z,44.96
2023-05-06T07:44:52.257Z,44.54
2023-05-06T07:47:32.104Z,44.48
2023-05-06T07:49:59.951Z,44.33
2023-05-06T07:52:27.732Z,44.17
2023-05-06T07:54:54.600Z,44.19
2023-05-06T07:57:21.591Z,43.79
2023-05-06T07:59:49.386Z,43.82
2023-05-06T08:02:16.573Z,43.49
2023-05-06T08:04:43.705Z,43.21
2023-05-06T08:07:11.004Z,42.41
2023-05-06T08:09:38.060Z,41.98
2023-05-06T08:12:05.529Z,41.24
2023-05-06T08:14:32.372Z,40.75
2023-05-06T08:16:59.223Z,40.62
2023-05-06T08:19:26.719Z,40.28
2023-05-06T08:21:53.808Z,39.73
2023-05-06T08:24:21.224Z,39.53
2023-05-06T08:26:47.993Z,39.52
2023-05-06T08:29:14.864Z,38.87
2023-05-06T08:31:41.705Z,38.49
2023-05-06T08:34:08.584Z,37.88
2023-05-06T08:36:35.392Z,36.44
2023-05-06T08:39:02.190Z,36.21
2023-05-06T08:41:29.308Z,36.44
2023-05-06T08:43:56.215Z,36.29
2023-05-06T08:46:23.249Z,35.72
2023-05-06T08:48:50.153Z,34.98
2023-05-06T08:51:17.138Z,34.45
2023-05-06T08:53:48.365Z,34.07
2023-05-06T08:56:15.627Z,33.79
2023-05-06T08:58:44.571Z,33.41
2023-05-06T09:01:11.419Z,32.07
2023-05-06T09:03:38.519Z,32.02
2023-05-06T09:06:05.813Z,31.94
2023-05-06T09:08:32.614Z,31.90
2023-05-06T09:10:59.418Z,31.88
2023-05-06T09:13:26.241Z,32.00
2023-05-06T09:15:53.981Z,31.13
2023-05-06T09:18:21.028Z,31.15
2023-05-06T09:20:48.940Z,30.83
2023-05-06T09:23:16.940Z,29.73
2023-05-06T09:25:46.013Z,29.57
2023-05-06T09:28:13.466Z,29.16
2023-05-06T09:30:44.946Z,28.53
2023-05-06T09:33:12.013Z,28.40
2023-05-06T09:35:42.996Z,28.45
2023-05-06T09:38:10.740Z,28.57
2023-05-06T09:40:38.039Z,28.81
2023-05-06T09:43:06.005Z,28.64
2023-05-06T09:45:33.316Z,28.12
2023-05-06T09:48:00.737Z,27.45
2023-05-06T09:50:27.730Z,27.48
2023-05-06T09:52:55.396Z,27.64
2023-05-06T09:55:23.182Z,27.11
2023-05-06T09:57:50.283Z,26.65
2023-05-06T10:00:17.435Z,26.83
2023-05-06T10:02:45.887Z,26.15
2023-05-06T10:05:13.904Z,26.00
2023-05-06T10:07:44.247Z,26.88
2023-05-06T10:10:14.442Z,26.75
2023-05-06T10:12:42.109Z,26.20
2023-05-06T10:15:09.918Z,26.08
2023-05-06T10:17:36.879Z,25.67
2023-05-06T10:20:04.851Z,25.52
2023-05-06T10:22:49.592Z,25.52
2023-05-06T10:25:29.154Z,24.99
2023-05-06T10:27:55.968Z,24.97
2023-05-06T10:30:23.273Z,24.52
2023-05-06T10:32:50.303Z,24.05
2023-05-06T10:35:47.057Z,24.04
2023-05-06T10:38:26.017Z,24.39
2023-05-06T10:40:52.910Z,24.45
2023-05-06T10:43:28.511Z,24.12
2023-05-06T10:46:19.235Z,23.67
2023-05-06T10:49:04.833Z,24.23
2023-05-06T10:51:35.749Z,23.95
2023-05-06T10:54:09.711Z,23.99
2023-05-06T10:56:40.852Z,23.74
2023-05-06T10:59:11.927Z,23.64
2023-05-06T11:01:42.756Z,23.65
2023-05-06T11:04:10.423Z,23.81
2023-05-06T11:06:42.401Z,23.55
2023-05-06T11:09:19.349Z,22.90
2023-05-06T11:11:47.645Z,22.31
2023-05-06T11:14:15.601Z,22.05
2023-05-06T11:16:49.704Z,22.15
2023-05-06T11:19:35.849Z,22.04
2023-05-06T11:22:04.087Z,21.63
2023-05-06T11:24:32.089Z,21.65
2023-05-06T11:27:00.408Z,21.90
2023-05-06T11:29:27.796Z,21.80
2023-05-06T11:31:54.557Z,21.50
2023-05-06T11:34:26.161Z,21.61
2023-05-06T11:36:58.678Z,21.69
2023-05-06T11:39:30.814Z,21.40
2023-05-06T11:41:59.792Z,20.71
2023-05-06T11:44:27.831Z,20.40
2023-05-06T11:47:05.895Z,21.24
2023-05-06T11:49:43.184Z,21.37
2023-05-06T11:52:11.062Z,21.18
2023-05-06T11:54:42.151Z,20.71
2023-05-06T11:57:09.424Z,20.80
2023-05-06T11:59:40.482Z,20.86
2023-05-06T12:02:12.825Z,20.87
2023-05-06T12:04:41.318Z,20.50
2023-05-06T12:07:09.732Z,20.26
2023-05-06T12:09:37.870Z,19.98
2023-05-06T12:12:05.144Z,20.17
2023-05-06T12:14:32.102Z,20.23
2023-05-06T12:16:58.911Z,19.96
2023-05-06T12:19:26.713Z,19.99
2023-05-06T12:21:53.513Z,19.89
2023-05-06T12:24:32.554Z,19.75
2023-05-06T12:26:59.362Z,19.89
2023-05-06T12:29:26.154Z,19.43
2023-05-06T12:32:07.664Z,19.69
2023-05-06T12:34:38.989Z,19.81
2023-05-06T12:37:06.633Z,19.82
2023-05-06T12:39:37.381Z,19.27
2023-05-06T12:42:04.648Z,19.19
2023-05-06T12:44:36.350Z,19.49
2023-05-06T12:47:19.025Z,19.56
2023-05-06T12:49:46.767Z,19.61
2023-05-06T12:52:13.834Z,19.68
2023-05-06T12:54:40.771Z,19.70
2023-05-06T12:57:07.862Z,19.33
2023-05-06T12:59:35.981Z,19.49
2023-05-06T13:02:04.281Z,19.02
2023-05-06T13:04:31.508Z,18.96
2023-05-06T13:06:58.783Z,18.61
2023-05-06T13:09:26.218Z,18.77
2023-05-06T13:11:53.323Z,18.79
2023-05-06T13:14:20.190Z,18.49
2023-05-06T13:16:47.166Z,18.31
2023-05-06T13:19:30.884Z,18.04
2023-05-06T13:21:59.366Z,18.15
2023-05-06T13:24:26.527Z,18.67
2023-05-06T13:26:53.396Z,18.54
2023-05-06T13:29:20.258Z,17.99
2023-05-06T13:31:47.184Z,17.79
2023-05-06T13:34:14.104Z,18.09
2023-05-06T13:36:43.855Z,18.21
2023-05-06T13:39:11.095Z,18.24
2023-05-06T13:41:37.918Z,18.33
2023-05-06T13:44:06.386Z,18.10
2023-05-06T13:46:33.340Z,18.28
2023-05-06T13:49:00.578Z,18.68
2023-05-06T13:51:30.082Z,18.81
2023-05-06T13:53:57.443Z,18.35
2023-05-06T13:56:24.270Z,17.66
2023-05-06T13:58:53.191Z,17.83
2023-05-06T14:01:23.930Z,17.80
2023-05-06T14:03:51.070Z,17.99
2023-05-06T14:06:18.030Z,18.25
2023-05-06T14:08:45.360Z,18.64
2023-05-06T14:11:12.205Z,18.68
2023-05-06T14:13:39.812Z,18.55
2023-05-06T14:16:07.080Z,18.33
2023-05-06T14:18:34.146Z,17.75
2023-05-06T14:21:01.211Z,18.06
2023-05-06T14:23:28.013Z,18.39
2023-05-06T14:25:54.892Z,18.16
2023-05-06T14:28:21.732Z,18.25
2023-05-06T14:30:51.072Z,18.29
2023-05-06T14:33:17.943Z,18.55
2023-05-06T14:35:46.170Z,18.60
2023-05-06T14:38:14.068Z,18.73
2023-05-06T14:40:40.925Z,19.14
2023-05-06T14:43:08.048Z,19.27
2023-05-06T14:45:35.529Z,19.18
2023-05-06T14:48:02.753Z,19.01
2023-05-06T14:50:30.588Z,19.32
2023-05-06T14:52:57.373Z,19.09
2023-05-06T14:55:24.246Z,19.24
2023-05-06T14:57:51.395Z,19.18
2023-05-06T15:00:18.952Z,19.22
2023-05-06T15:02:46.491Z,19.47
2023-05-06T15:05:13.797Z,19.50
2023-05-06T15:07:41.245Z,19.44
2023-05-06T15:10:08.598Z,19.24
2023-05-06T15:12:36.478Z,19.32
2023-05-06T15:15:05.238Z,19.38
2023-05-06T15:17:32.675Z,19.45
2023-05-06T15:19:59.794Z,19.51
2023-05-06T15:22:26.837Z,19.67
2023-05-06T15:24:53.594Z,19.72
2023-05-06T15:27:21.141Z,20.03
2023-05-06T15:29:47.945Z,20.08
2023-05-06T15:32:15.326Z,19.90
2023-05-06T15:34:42.171Z,20.17
2023-05-06T15:37:09.217Z,20.17
2023-05-06T15:39:39.031Z,20.40
2023-05-06T15:42:06.368Z,20.61
2023-05-06T15:44:33.988Z,20.65
2023-05-06T15:47:01.023Z,20.73
2023-05-06T15:52:00.080Z,20.78
2023-05-06T15:54:29.034Z,21.02
2023-05-06T15:56:56.692Z,21.35
2023-05-06T15:59:24.027Z,21.68
2023-05-06T16:02:25.702Z,21.97
2023-05-06T16:04:38.120Z,21.78
2023-05-06T16:07:05.218Z,21.61
2023-05-06T16:09:32.043Z,21.71
2023-05-06T16:11:59.105Z,21.99
2023-05-06T16:14:26.236Z,22.20
2023-05-06T16:16:53.356Z,22.52
2023-05-06T16:19:20.185Z,22.88
2023-05-06T16:21:47.508Z,23.14
2023-05-06T16:24:14.438Z,23.33
2023-05-06T16:26:41.602Z,23.48
2023-05-06T16:29:08.404Z,23.86
2023-05-06T16:31:35.414Z,24.07
2023-05-06T16:34:02.336Z,24.35
2023-05-06T16:36:29.159Z,24.65
2023-05-06T16:38:55.912Z,25.03
2023-05-06T16:41:22.775Z,24.95
2023-05-06T16:43:49.949Z,25.20
2023-05-06T16:46:16.983Z,25.23
2023-05-06T16:48:44.266Z,25.03
2023-05-06T16:51:13.838Z,25.29
2023-05-06T16:53:40.889Z,25.43
2023-05-06T16:56:09.055Z,25.49
2023-05-06T16:58:36.018Z,25.94
2023-05-06T17:01:02.946Z,26.35
2023-05-06T17:03:29.944Z,26.63
2023-05-06T17:05:56.995Z,26.88
2023-05-06T17:08:24.545Z,26.95
2023-05-06T17:10:53.784Z,26.97
2023-05-06T17:13:20.745Z,27.19
2023-05-06T17:15:47.667Z,27.22
2023-05-06T17:18:14.618Z,27.12
2023-05-06T17:20:54.467Z,27.08
2023-05-06T17:23:22.830Z,27.35
2023-05-06T17:25:49.665Z,27.53
2023-05-06T17:28:17.377Z,27.72
2023-05-06T17:30:46.009Z,28.10
2023-05-06T17:33:13.056Z,28.37
2023-05-06T17:35:40.114Z,28.52
2023-05-06T17:38:06.963Z,28.45
2023-05-06T17:40:33.867Z,28.57
2023-05-06T17:43:00.900Z,28.71
2023-05-06T17:45:28.561Z,28.83
2023-05-06T17:47:56.556Z,28.80
2023-05-06T17:50:23.751Z,29.09
2023-05-06T17:52:52.957Z,29.13
2023-05-06T17:55:21.837Z,29.33
2023-05-06T17:57:49.332Z,29.56
2023-05-06T18:00:17.133Z,29.58
2023-05-06T18:02:44.988Z,29.71
2023-05-06T18:05:13.370Z,29.87
2023-05-06T18:07:41.127Z,29.75
2023-05-06T18:10:08.903Z,29.79
2023-05-06T18:12:35.789Z,30.01
2023-05-06T18:15:02.732Z,30.10
2023-05-06T18:17:29.556Z,30.15
2023-05-06T18:19:56.884Z,30.32
2023-05-06T18:22:23.993Z,30.17
2023-05-06T18:24:55.512Z,30.50
2023-05-06T18:27:22.928Z,30.51
2023-05-06T18:29:50.003Z,30.44
2023-05-06T18:32:17.986Z,30.51
2023-05-06T18:34:45.050Z,30.63
2023-05-06T18:37:12.098Z,30.68
2023-05-06T18:39:42.946Z,30.67
2023-05-06T18:42:09.940Z,30.87
2023-05-06T18:44:37.133Z,30.90
2023-05-06T18:47:04.180Z,30.92
2023-05-06T18:49:31.433Z,31.08
2023-05-06T18:51:58.387Z,31.18
2023-05-06T18:54:25.417Z,31.36
2023-05-06T18:56:52.322Z,31.61
2023-05-06T18:59:19.947Z,31.63
2023-05-06T19:01:46.974Z,31.52
2023-05-06T19:04:13.963Z,31.51
2023-05-06T19:06:41.129Z,31.53
2023-05-06T19:09:08.205Z,31.57
2023-05-06T19:11:35.554Z,31.68
2023-05-06T19:14:02.942Z,31.73
2023-05-06T19:16:30.017Z,31.80
2023-05-06T19:18:56.976Z,31.82
2023-05-06T19:21:24.107Z,31.81
2023-05-06T19:23:51.329Z,31.92
2023-05-06T19:26:18.287Z,32.11
2023-05-06T19:28:45.157Z,32.12
2023-05-06T19:31:12.219Z,32.37
2023-05-06T19:33:39.516Z,32.38
2023-05-06T19:36:06.905Z,32.38
2023-05-06T19:38:34.022Z,32.40
2023-05-06T19:41:01.506Z,32.76
2023-05-06T19:43:28.541Z,32.90
2023-05-06T19:45:56.064Z,32.82
2023-05-06T19:48:23.876Z,32.87
2023-05-06T19:50:51.657Z,32.86
2023-05-06T19:53:18.472Z,32.75
2023-05-06T19:55:45.614Z,32.80
2023-05-06T19:58:14.229Z,32.77
2023-05-06T20:00:41.250Z,32.86
2023-05-06T20:03:09.795Z,32.81
2023-05-06T20:05:36.954Z,32.78
2023-05-06T20:08:03.933Z,32.88
2023-05-06T20:10:31.020Z,33.01
2023-05-06T20:12:58.133Z,33.16
2023-05-06T20:15:26.775Z,33.02
2023-05-06T20:17:53.791Z,33.17
2023-05-06T20:20:21.315Z,33.17
2023-05-06T20:22:48.181Z,33.16
2023-05-06T20:25:18.863Z,33.41
2023-05-06T20:27:46.496Z,33.53
2023-05-06T20:30:13.562Z,33.68
2023-05-06T20:32:40.813Z,33.69
2023-05-06T20:35:08.495Z,33.58
2023-05-06T20:37:36.682Z,33.67
2023-05-06T20:40:05.914Z,33.70
2023-05-06T20:42:32.713Z,33.80
2023-05-06T20:44:59.827Z,33.87
2023-05-06T20:47:27.198Z,33.85
2023-05-06T20:49:54.606Z,33.88
2023-05-06T20:52:21.880Z,33.98
2023-05-06T20:54:49.068Z,33.88
2023-05-06T20:57:16.956Z,33.83
2023-05-06T20:59:44.169Z,33.66
2023-05-06T21:02:11.376Z,33.64
2023-05-06T21:04:40.868Z,33.88
2023-05-06T21:07:07.880Z,34.19
2023-05-06T21:09:34.865Z,34.18
2023-05-06T21:12:01.726Z,34.34
2023-05-06T21:22:10.268Z,34.68
2023-05-06T21:24:37.116Z,34.77
2023-05-06T21:27:04.268Z,34.96
2023-05-06T21:29:31.433Z,35.13
2023-05-06T21:31:58.580Z,35.25
2023-05-06T21:34:26.568Z,35.17
2023-05-06T21:36:53.376Z,35.18
2023-05-06T21:39:20.224Z,35.06
2023-05-06T21:41:46.990Z,34.97
2023-05-06T21:44:13.808Z,35.10
2023-05-06T21:46:41.006Z,35.19
2023-05-06T21:49:08.097Z,35.28
2023-05-06T21:51:36.164Z,35.46
2023-05-06T21:54:03.363Z,35.29
2023-05-06T21:56:30.598Z,35.33
2023-05-06T21:58:57.626Z,35.33
2023-05-06T22:01:29.184Z,35.33
2023-05-06T22:03:56.270Z,35.13
2023-05-06T22:06:23.471Z,35.08
2023-05-06T22:08:50.366Z,35.20
2023-05-06T22:11:17.390Z,35.34
2023-05-06T22:13:44.341Z,35.43
2023-05-06T22:16:11.719Z,35.57
2023-05-06T22:18:41.831Z,35.64
2023-05-06T22:21:10.788Z,35.93
2023-05-06T22:23:40.690Z,36.08
2023-05-06T22:26:07.965Z,36.13
2023-05-06T22:28:35.024Z,36.18
2023-05-06T22:31:03.028Z,36.19
2023-05-06T22:33:30.779Z,36.33
2023-05-06T22:35:57.993Z,36.36
2023-05-06T22:38:24.922Z,36.52
2023-05-06T22:40:52.457Z,36.59
2023-05-06T22:43:19.330Z,36.74
2023-05-06T22:45:46.811Z,36.73
2023-05-06T22:48:13.613Z,36.64
2023-05-06T22:50:40.933Z,36.70
2023-05-06T22:53:14.950Z,36.75
2023-05-06T22:55:42.709Z,36.70
2023-05-06T22:58:09.746Z,36.71
2023-05-06T23:00:36.671Z,36.71
2023-05-06T23:03:03.677Z,36.64
2023-05-06T23:05:30.852Z,36.65
2023-05-06T23:07:57.651Z,36.61
2023-05-06T23:10:24.723Z,36.73
2023-05-06T23:12:51.663Z,36.85
2023-05-06T23:15:18.557Z,36.90
2023-05-06T23:17:45.494Z,36.99
2023-05-06T23:20:13.094Z,36.91
2023-05-06T23:22:40.100Z,36.90
2023-05-06T23:25:09.406Z,37.00
2023-05-06T23:27:43.047Z,37.22
2023-05-06T23:30:10.741Z,37.37
2023-05-06T23:32:38.182Z,37.16
2023-05-06T23:35:07.439Z,37.20
2023-05-06T23:37:34.703Z,37.24
2023-05-06T23:40:01.714Z,37.46
2023-05-06T23:42:28.760Z,37.65
2023-05-06T23:44:56.125Z,37.70
2023-05-06T23:47:24.572Z,37.51
2023-05-06T23:49:52.562Z,37.42
2023-05-06T23:52:19.385Z,37.28
2023-05-06T23:54:46.233Z,37.20
2023-05-06T23:57:13.039Z,37.29
2023-05-06T23:59:39.882Z,37.41
